sensor_id;sensor_type;location;lat;lon;timestamp;P1;durP1;ratioP1;P2;durP2;ratioP2
66663;SDS011;59683;51.428;-1.994;2023-08-30T00:00:20;6.93;;;1.73;;
66663;SDS011;59683;51.428;-1.994;2023-08-30T00:02:48;5.27;;;1.87;;
66663;SDS011;59683;51.428;-1.994;2023-08-30T00:05:14;9.97;;;1.90;;
66663;SDS011;59683;51.428;-1.994;2023-08-30T00:07:39;4.53;;;1.57;;
66663;SDS011;59683;51.428;-1.994;2023-08-30T00:10:05;11.67;;;2.90;;
66663;SDS011;59683;51.428;-1.994;2023-08-30T06:39:39;12.57;;;5.05;;
66663;SDS011;59683;51.428;-1.994;2023-08-30T06:42:05;12.87;;;5.27;;
66663;SDS011;59683;51.428;-1.994;2023-08-30T06:44:30;11.17;;;4.90;;
66663;SDS011;59683;51.428;-1.994;2023-08-30T06:46:56;17.50;;;5.20;;
66663;SDS011;59683;51.428;-1.994;2023-08-30T06:49:22;15.67;;;4.90;;
66663;SDS011;59683;51.428;-1.994;2023-08-30T06:51:48;15.00;;;4.30;;
66663;SDS011;59683;51.428;-1.994;2023-08-30T06:54:13;12.33;;;4.10;;
66663;SDS011;59683;51.428;-1.994;2023-08-30T06:56:39;16.13;;;3.87;;
66663;SDS011;59683;51.428;-1.994;2023-08-30T06:59:04;15.67;;;4.93;;
66663;SDS011;59683;51.428;-1.994;2023-08-30T07:01:30;9.50;;;3.73;;
66663;SDS011;59683;51.428;-1.994;2023-08-30T07:03:55;7.83;;;2.70;;
66663;SDS011;59683;51.428;-1.994;2023-08-30T07:06:20;6.87;;;2.30;;
66663;SDS011;59683;51.428;-1.994;2023-08-30T07:08:46;8.77;;;3.00;;
66663;SDS011;59683;51.428;-1.994;2023-08-30T07:11:11;9.90;;;2.80;;
66663;SDS011;59683;51.428;-1.994;2023-08-30T07:13:37;6.73;;;2.50;;
66663;SDS011;59683;51.428;-1.994;2023-08-30T07:16:02;8.23;;;2.13;;
66663;SDS011;59683;51.428;-1.994;2023-08-30T07:18:28;12.47;;;2.60;;
66663;SDS011;59683;51.428;-1.994;2023-08-30T07:20:54;10.27;;;2.40;;
66663;SDS011;59683;51.428;-1.994;2023-08-30T07:23:19;7.30;;;2.40;;
66663;SDS011;59683;51.428;-1.994;2023-08-30T07:25:45;6.50;;;2.57;;
66663;SDS011;59683;51.428;-1.994;2023-08-30T07:28:10;6.70;;;1.70;;
66663;SDS011;59683;51.428;-1.994;2023-08-30T07:30:36;8.97;;;2.03;;
66663;SDS011;59683;51.428;-1.994;2023-08-30T07:33:01;8.13;;;2.30;;
66663;SDS011;59683;51.428;-1.994;2023-08-30T07:35:28;7.00;;;3.13;;
66663;SDS011;59683;51.428;-1.994;2023-08-30T07:37:53;7.83;;;2.20;;
66663;SDS011;59683;51.428;-1.994;2023-08-30T07:40:19;5.13;;;2.07;;
66663;SDS011;59683;51.428;-1.994;2023-08-30T07:42:45;9.50;;;2.30;;
66663;SDS011;59683;51.428;-1.994;2023-08-30T07:45:11;7.77;;;1.93;;
66663;SDS011;59683;51.428;-1.994;2023-08-30T07:47:37;8.87;;;1.93;;
66663;SDS011;59683;51.428;-1.994;2023-08-30T07:50:04;9.13;;;2.00;;
66663;SDS011;59683;51.428;-1.994;2023-08-30T07:52:30;8.30;;;1.63;;
66663;SDS011;59683;51.428;-1.994;2023-08-30T07:54:56;8.10;;;2.07;;
66663;SDS011;59683;51.428;-1.994;2023-08-30T07:57:21;7.47;;;2.47;;
66663;SDS011;59683;51.428;-1.994;2023-08-30T07:59:46;7.27;;;2.30;;
66663;SDS011;59683;51.428;-1.994;2023-08-30T08:02:12;7.10;;;2.00;;
66663;SDS011;59683;51.428;-1.994;2023-08-30T08:04:37;9.73;;;2.07;;
66663;SDS011;59683;51.428;-1.994;2023-08-30T08:07:03;11.17;;;1.77;;
66663;SDS011;59683;51.428;-1.994;2023-08-30T08:09:29;8.50;;;1.83;;
66663;SDS011;59683;51.428;-1.994;2023-08-30T08:11:55;5.87;;;1.47;;
66663;SDS011;59683;51.428;-1.994;2023-08-30T08:14:21;7.90;;;1.33;;
66663;SDS011;59683;51.428;-1.994;2023-08-30T08:16:48;4.30;;;1.20;;
66663;SDS011;59683;51.428;-1.994;2023-08-30T08:19:13;4.80;;;2.13;;
66663;SDS011;59683;51.428;-1.994;2023-08-30T08:21:38;6.30;;;1.30;;
66663;SDS011;59683;51.428;-1.994;2023-08-30T08:24:04;5.57;;;1.47;;
66663;SDS011;59683;51.428;-1.994;2023-08-30T08:26:30;5.67;;;0.97;;
66663;SDS011;59683;51.428;-1.994;2023-08-30T08:28:55;15.60;;;5.87;;
66663;SDS011;59683;51.428;-1.994;2023-08-30T08:31:21;6.37;;;1.67;;
66663;SDS011;59683;51.428;-1.994;2023-08-30T08:33:49;5.83;;;1.00;;
66663;SDS011;59683;51.428;-1.994;2023-08-30T08:36:16;5.32;;;1.33;;
66663;SDS011;59683;51.428;-1.994;2023-08-30T08:38:42;3.90;;;0.77;;
66663;SDS011;59683;51.428;-1.994;2023-08-30T08:41:08;4.85;;;0.90;;
66663;SDS011;59683;51.428;-1.994;2023-08-30T08:43:39;3.95;;;0.90;;
66663;SDS011;59683;51.428;-1.994;2023-08-30T08:46:07;6.57;;;1.20;;
66663;SDS011;59683;51.428;-1.994;2023-08-30T08:48:37;3.35;;;1.13;;
66663;SDS011;59683;51.428;-1.994;2023-08-30T08:51:06;3.22;;;0.80;;
66663;SDS011;59683;51.428;-1.994;2023-08-30T08:53:32;3.42;;;1.10;;
66663;SDS011;59683;51.428;-1.994;2023-08-30T08:55:58;4.43;;;0.85;;
66663;SDS011;59683;51.428;-1.994;2023-08-30T08:58:25;5.30;;;0.82;;
66663;SDS011;59683;51.428;-1.994;2023-08-30T09:00:51;4.80;;;0.68;;
66663;SDS011;59683;51.428;-1.994;2023-08-30T09:03:17;4.35;;;1.00;;
66663;SDS011;59683;51.428;-1.994;2023-08-30T09:05:43;2.45;;;0.52;;
66663;SDS011;59683;51.428;-1.994;2023-08-30T09:08:11;2.60;;;0.55;;
66663;SDS011;59683;51.428;-1.994;2023-08-30T09:10:38;4.38;;;1.08;;
66663;SDS011;59683;51.428;-1.994;2023-08-30T09:13:04;3.40;;;0.93;;
66663;SDS011;59683;51.428;-1.994;2023-08-30T09:15:31;6.00;;;0.90;;
66663;SDS011;59683;51.428;-1.994;2023-08-30T09:17:57;2.72;;;0.50;;
66663;SDS011;59683;51.428;-1.994;2023-08-30T09:20:23;3.08;;;0.60;;
66663;SDS011;59683;51.428;-1.994;2023-08-30T09:22:48;4.82;;;0.73;;
66663;SDS011;59683;51.428;-1.994;2023-08-30T09:25:22;3.88;;;0.60;;
66663;SDS011;59683;51.428;-1.994;2023-08-30T09:27:58;3.42;;;0.80;;
66663;SDS011;59683;51.428;-1.994;2023-08-30T09:30:24;2.65;;;0.55;;
66663;SDS011;59683;51.428;-1.994;2023-08-30T09:32:50;4.82;;;0.60;;
66663;SDS011;59683;51.428;-1.994;2023-08-30T09:35:18;3.25;;;0.60;;
66663;SDS011;59683;51.428;-1.994;2023-08-30T09:37:44;5.28;;;0.60;;
66663;SDS011;59683;51.428;-1.994;2023-08-30T09:40:10;4.20;;;0.70;;
66663;SDS011;59683;51.428;-1.994;2023-08-30T09:42:40;3.63;;;0.90;;
66663;SDS011;59683;51.428;-1.994;2023-08-30T09:45:16;3.40;;;0.70;;
66663;SDS011;59683;51.428;-1.994;2023-08-30T09:47:51;3.13;;;0.63;;
66663;SDS011;59683;51.428;-1.994;2023-08-30T09:50:18;2.67;;;0.40;;
66663;SDS011;59683;51.428;-1.994;2023-08-30T09:52:47;5.07;;;0.95;;
66663;SDS011;59683;51.428;-1.994;2023-08-30T09:57:40;1.88;;;0.50;;
66663;SDS011;59683;51.428;-1.994;2023-08-30T10:00:10;2.17;;;0.45;;
66663;SDS011;59683;51.428;-1.994;2023-08-30T10:02:43;2.55;;;0.60;;
66663;SDS011;59683;51.428;-1.994;2023-08-30T10:05:12;1.85;;;0.57;;
66663;SDS011;59683;51.428;-1.994;2023-08-30T10:07:41;3.42;;;0.60;;
66663;SDS011;59683;51.428;-1.994;2023-08-30T10:10:08;4.45;;;0.90;;
66663;SDS011;59683;51.428;-1.994;2023-08-30T10:12:35;3.08;;;0.50;;
66663;SDS011;59683;51.428;-1.994;2023-08-30T10:15:02;1.90;;;0.52;;
66663;SDS011;59683;51.428;-1.994;2023-08-30T10:17:28;3.35;;;0.70;;
66663;SDS011;59683;51.428;-1.994;2023-08-30T10:19:57;5.57;;;0.93;;
66663;SDS011;59683;51.428;-1.994;2023-08-30T10:22:23;2.05;;;0.50;;
66663;SDS011;59683;51.428;-1.994;2023-08-30T10:24:52;3.33;;;0.52;;
66663;SDS011;59683;51.428;-1.994;2023-08-30T10:27:23;1.92;;;0.50;;
66663;SDS011;59683;51.428;-1.994;2023-08-30T10:29:51;2.25;;;0.52;;
66663;SDS011;59683;51.428;-1.994;2023-08-30T10:32:21;2.30;;;0.50;;
66663;SDS011;59683;51.428;-1.994;2023-08-30T10:34:47;1.90;;;0.40;;
66663;SDS011;59683;51.428;-1.994;2023-08-30T10:37:14;2.10;;;0.60;;
66663;SDS011;59683;51.428;-1.994;2023-08-30T10:39:40;2.47;;;0.90;;
66663;SDS011;59683;51.428;-1.994;2023-08-30T10:42:13;1.80;;;0.50;;
66663;SDS011;59683;51.428;-1.994;2023-08-30T10:44:47;1.35;;;0.40;;
66663;SDS011;59683;51.428;-1.994;2023-08-30T10:47:19;2.45;;;0.32;;
66663;SDS011;59683;51.428;-1.994;2023-08-30T10:50:07;1.67;;;0.40;;
66663;SDS011;59683;51.428;-1.994;2023-08-30T10:52:33;2.20;;;0.38;;
66663;SDS011;59683;51.428;-1.994;2023-08-30T10:55:12;1.77;;;0.57;;
66663;SDS011;59683;51.428;-1.994;2023-08-30T10:57:43;5.40;;;0.40;;
66663;SDS011;59683;51.428;-1.994;2023-08-30T11:00:22;9.00;;;0.75;;
66663;SDS011;59683;51.428;-1.994;2023-08-30T11:02:48;2.88;;;0.43;;
66663;SDS011;59683;51.428;-1.994;2023-08-30T11:05:16;0.82;;;0.30;;
66663;SDS011;59683;51.428;-1.994;2023-08-30T11:07:45;1.65;;;0.47;;
66663;SDS011;59683;51.428;-1.994;2023-08-30T11:10:12;1.90;;;0.30;;
66663;SDS011;59683;51.428;-1.994;2023-08-30T11:12:39;1.55;;;0.30;;
66663;SDS011;59683;51.428;-1.994;2023-08-30T11:15:06;2.78;;;0.50;;
66663;SDS011;59683;51.428;-1.994;2023-08-30T11:17:33;2.00;;;0.43;;
66663;SDS011;59683;51.428;-1.994;2023-08-30T11:20:12;3.45;;;1.05;;
66663;SDS011;59683;51.428;-1.994;2023-08-30T11:22:39;2.15;;;0.60;;
66663;SDS011;59683;51.428;-1.994;2023-08-30T11:27:35;4.40;;;0.93;;
66663;SDS011;59683;51.428;-1.994;2023-08-30T11:30:01;9.07;;;0.90;;
66663;SDS011;59683;51.428;-1.994;2023-08-30T11:32:37;3.30;;;0.90;;
66663;SDS011;59683;51.428;-1.994;2023-08-30T11:35:03;3.27;;;0.70;;
66663;SDS011;59683;51.428;-1.994;2023-08-30T11:37:30;3.90;;;0.53;;
66663;SDS011;59683;51.428;-1.994;2023-08-30T11:39:56;3.13;;;0.60;;
66663;SDS011;59683;51.428;-1.994;2023-08-30T11:42:22;3.03;;;0.50;;
66663;SDS011;59683;51.428;-1.994;2023-08-30T11:44:48;3.93;;;0.70;;
66663;SDS011;59683;51.428;-1.994;2023-08-30T11:47:24;4.67;;;0.83;;
66663;SDS011;59683;51.428;-1.994;2023-08-30T11:49:54;5.20;;;0.70;;
66663;SDS011;59683;51.428;-1.994;2023-08-30T11:54:47;2.30;;;1.10;;
66663;SDS011;59683;51.428;-1.994;2023-08-30T11:57:13;2.13;;;0.57;;
66663;SDS011;59683;51.428;-1.994;2023-08-30T11:59:38;2.57;;;0.50;;
66663;SDS011;59683;51.428;-1.994;2023-08-30T12:02:04;3.23;;;0.50;;
66663;SDS011;59683;51.428;-1.994;2023-08-30T12:04:32;4.23;;;0.90;;
66663;SDS011;59683;51.428;-1.994;2023-08-30T12:06:57;2.17;;;0.67;;
66663;SDS011;59683;51.428;-1.994;2023-08-30T12:09:29;4.03;;;1.37;;
66663;SDS011;59683;51.428;-1.994;2023-08-30T12:12:04;2.13;;;0.50;;
66663;SDS011;59683;51.428;-1.994;2023-08-30T12:14:33;11.80;;;0.70;;
66663;SDS011;59683;51.428;-1.994;2023-08-30T12:17:00;1.73;;;0.65;;
66663;SDS011;59683;51.428;-1.994;2023-08-30T12:19:27;1.73;;;0.50;;
66663;SDS011;59683;51.428;-1.994;2023-08-30T12:21:53;3.80;;;0.70;;
66663;SDS011;59683;51.428;-1.994;2023-08-30T12:24:18;2.53;;;0.57;;
66663;SDS011;59683;51.428;-1.994;2023-08-30T12:26:44;2.30;;;0.70;;
66663;SDS011;59683;51.428;-1.994;2023-08-30T12:29:09;1.77;;;0.50;;
66663;SDS011;59683;51.428;-1.994;2023-08-30T12:31:35;3.17;;;1.10;;
66663;SDS011;59683;51.428;-1.994;2023-08-30T12:34:00;3.40;;;1.17;;
66663;SDS011;59683;51.428;-1.994;2023-08-30T12:36:25;2.40;;;0.90;;
66663;SDS011;59683;51.428;-1.994;2023-08-30T12:38:51;3.90;;;0.87;;
66663;SDS011;59683;51.428;-1.994;2023-08-30T12:41:16;3.50;;;0.73;;
66663;SDS011;59683;51.428;-1.994;2023-08-30T12:43:42;3.17;;;0.77;;
66663;SDS011;59683;51.428;-1.994;2023-08-30T12:46:07;7.90;;;0.80;;
66663;SDS011;59683;51.428;-1.994;2023-08-30T12:48:32;2.10;;;0.60;;
66663;SDS011;59683;51.428;-1.994;2023-08-30T12:50:58;6.10;;;1.20;;
66663;SDS011;59683;51.428;-1.994;2023-08-30T12:53:23;5.63;;;0.83;;
66663;SDS011;59683;51.428;-1.994;2023-08-30T12:55:49;8.23;;;1.40;;
66663;SDS011;59683;51.428;-1.994;2023-08-30T12:58:14;6.33;;;0.83;;
66663;SDS011;59683;51.428;-1.994;2023-08-30T13:00:39;4.57;;;0.80;;
66663;SDS011;59683;51.428;-1.994;2023-08-30T13:03:05;1.50;;;0.40;;
66663;SDS011;59683;51.428;-1.994;2023-08-30T13:05:31;2.43;;;0.53;;
66663;SDS011;59683;51.428;-1.994;2023-08-30T13:07:57;3.17;;;0.57;;
66663;SDS011;59683;51.428;-1.994;2023-08-30T13:10:26;1.87;;;0.50;;
66663;SDS011;59683;51.428;-1.994;2023-08-30T13:12:51;6.07;;;0.97;;
66663;SDS011;59683;51.428;-1.994;2023-08-30T13:15:17;4.90;;;1.20;;
66663;SDS011;59683;51.428;-1.994;2023-08-30T13:17:42;2.17;;;0.70;;
66663;SDS011;59683;51.428;-1.994;2023-08-30T13:20:08;2.07;;;0.60;;
66663;SDS011;59683;51.428;-1.994;2023-08-30T13:22:34;3.23;;;0.70;;
66663;SDS011;59683;51.428;-1.994;2023-08-30T13:24:59;2.17;;;0.83;;
66663;SDS011;59683;51.428;-1.994;2023-08-30T13:27:25;4.37;;;0.80;;
66663;SDS011;59683;51.428;-1.994;2023-08-30T13:29:50;2.03;;;0.73;;
66663;SDS011;59683;51.428;-1.994;2023-08-30T13:32:16;1.53;;;0.60;;
66663;SDS011;59683;51.428;-1.994;2023-08-30T13:34:41;3.40;;;0.60;;
66663;SDS011;59683;51.428;-1.994;2023-08-30T13:37:10;4.88;;;0.65;;
66663;SDS011;59683;51.428;-1.994;2023-08-30T13:39:37;3.07;;;0.70;;
66663;SDS011;59683;51.428;-1.994;2023-08-30T13:42:02;1.97;;;0.50;;
66663;SDS011;59683;51.428;-1.994;2023-08-30T13:44:27;5.37;;;0.60;;
66663;SDS011;59683;51.428;-1.994;2023-08-30T13:46:53;3.40;;;0.67;;
66663;SDS011;59683;51.428;-1.994;2023-08-30T13:49:18;4.03;;;0.77;;
66663;SDS011;59683;51.428;-1.994;2023-08-30T13:51:44;2.87;;;0.70;;
66663;SDS011;59683;51.428;-1.994;2023-08-30T13:54:12;4.17;;;0.57;;
66663;SDS011;59683;51.428;-1.994;2023-08-30T13:56:38;4.70;;;1.03;;
66663;SDS011;59683;51.428;-1.994;2023-08-30T13:59:03;3.67;;;0.70;;
66663;SDS011;59683;51.428;-1.994;2023-08-30T14:01:31;5.57;;;0.60;;
66663;SDS011;59683;51.428;-1.994;2023-08-30T14:03:56;1.73;;;0.50;;
66663;SDS011;59683;51.428;-1.994;2023-08-30T14:06:21;2.33;;;0.50;;
66663;SDS011;59683;51.428;-1.994;2023-08-30T14:08:47;1.53;;;0.57;;
66663;SDS011;59683;51.428;-1.994;2023-08-30T14:11:12;2.60;;;0.50;;
66663;SDS011;59683;51.428;-1.994;2023-08-30T14:13:39;2.80;;;0.70;;
66663;SDS011;59683;51.428;-1.994;2023-08-30T14:16:04;1.27;;;0.40;;
66663;SDS011;59683;51.428;-1.994;2023-08-30T14:18:30;2.80;;;0.87;;
66663;SDS011;59683;51.428;-1.994;2023-08-30T14:20:56;1.25;;;0.30;;
66663;SDS011;59683;51.428;-1.994;2023-08-30T14:23:23;3.10;;;0.57;;
66663;SDS011;59683;51.428;-1.994;2023-08-30T14:25:59;3.92;;;0.70;;
66663;SDS011;59683;51.428;-1.994;2023-08-30T14:28:26;1.73;;;0.40;;
66663;SDS011;59683;51.428;-1.994;2023-08-30T14:30:52;5.45;;;0.93;;
66663;SDS011;59683;51.428;-1.994;2023-08-30T14:33:18;7.60;;;0.60;;
66663;SDS011;59683;51.428;-1.994;2023-08-30T14:35:43;5.73;;;1.57;;
66663;SDS011;59683;51.428;-1.994;2023-08-30T14:38:09;2.53;;;0.50;;
66663;SDS011;59683;51.428;-1.994;2023-08-30T14:40:34;4.07;;;0.50;;
66663;SDS011;59683;51.428;-1.994;2023-08-30T14:43:01;2.47;;;1.00;;
66663;SDS011;59683;51.428;-1.994;2023-08-30T14:45:27;7.00;;;0.70;;
66663;SDS011;59683;51.428;-1.994;2023-08-30T14:47:53;3.53;;;0.70;;
66663;SDS011;59683;51.428;-1.994;2023-08-30T14:50:18;5.30;;;0.60;;
66663;SDS011;59683;51.428;-1.994;2023-08-30T14:52:44;2.60;;;0.60;;
66663;SDS011;59683;51.428;-1.994;2023-08-30T14:55:09;3.08;;;0.60;;
66663;SDS011;59683;51.428;-1.994;2023-08-30T14:57:35;3.58;;;0.88;;
66663;SDS011;59683;51.428;-1.994;2023-08-30T15:00:00;3.50;;;0.60;;
66663;SDS011;59683;51.428;-1.994;2023-08-30T15:02:26;2.42;;;0.60;;
66663;SDS011;59683;51.428;-1.994;2023-08-30T15:04:52;3.05;;;0.50;;
66663;SDS011;59683;51.428;-1.994;2023-08-30T15:07:17;2.45;;;0.65;;
66663;SDS011;59683;51.428;-1.994;2023-08-30T15:09:43;4.22;;;0.73;;
66663;SDS011;59683;51.428;-1.994;2023-08-30T15:12:08;3.85;;;0.70;;
66663;SDS011;59683;51.428;-1.994;2023-08-30T15:14:34;3.90;;;0.50;;
66663;SDS011;59683;51.428;-1.994;2023-08-30T15:16:59;2.60;;;0.70;;
66663;SDS011;59683;51.428;-1.994;2023-08-30T15:19:25;1.63;;;0.50;;
66663;SDS011;59683;51.428;-1.994;2023-08-30T15:21:51;2.70;;;0.60;;
66663;SDS011;59683;51.428;-1.994;2023-08-30T15:24:16;3.93;;;1.07;;
66663;SDS011;59683;51.428;-1.994;2023-08-30T15:26:42;2.80;;;0.70;;
66663;SDS011;59683;51.428;-1.994;2023-08-30T15:29:08;1.63;;;0.60;;
66663;SDS011;59683;51.428;-1.994;2023-08-30T15:31:33;2.13;;;0.90;;
66663;SDS011;59683;51.428;-1.994;2023-08-30T15:33:59;5.57;;;0.80;;
66663;SDS011;59683;51.428;-1.994;2023-08-30T15:36:24;3.93;;;1.13;;
66663;SDS011;59683;51.428;-1.994;2023-08-30T15:38:49;3.63;;;0.80;;
66663;SDS011;59683;51.428;-1.994;2023-08-30T15:41:15;3.87;;;0.90;;
66663;SDS011;59683;51.428;-1.994;2023-08-30T15:43:40;4.10;;;0.70;;
66663;SDS011;59683;51.428;-1.994;2023-08-30T15:48:36;3.20;;;0.83;;
66663;SDS011;59683;51.428;-1.994;2023-08-30T15:51:03;7.33;;;0.80;;
66663;SDS011;59683;51.428;-1.994;2023-08-30T15:53:28;3.60;;;0.80;;
66663;SDS011;59683;51.428;-1.994;2023-08-30T15:55:54;3.47;;;0.77;;
66663;SDS011;59683;51.428;-1.994;2023-08-30T15:58:19;1.77;;;0.77;;
66663;SDS011;59683;51.428;-1.994;2023-08-30T16:00:45;3.00;;;0.70;;
66663;SDS011;59683;51.428;-1.994;2023-08-30T16:03:13;3.57;;;1.10;;
66663;SDS011;59683;51.428;-1.994;2023-08-30T16:05:43;5.95;;;0.85;;
66663;SDS011;59683;51.428;-1.994;2023-08-30T16:08:09;6.93;;;1.17;;
66663;SDS011;59683;51.428;-1.994;2023-08-30T16:10:35;2.33;;;0.70;;
66663;SDS011;59683;51.428;-1.994;2023-08-30T16:13:01;4.80;;;0.80;;
66663;SDS011;59683;51.428;-1.994;2023-08-30T16:15:27;4.30;;;1.37;;
66663;SDS011;59683;51.428;-1.994;2023-08-30T16:17:54;4.30;;;0.83;;
66663;SDS011;59683;51.428;-1.994;2023-08-30T16:20:24;4.63;;;1.03;;
66663;SDS011;59683;51.428;-1.994;2023-08-30T16:22:50;4.23;;;0.90;;
66663;SDS011;59683;51.428;-1.994;2023-08-30T16:25:16;4.63;;;0.73;;
66663;SDS011;59683;51.428;-1.994;2023-08-30T16:27:41;4.03;;;0.67;;
66663;SDS011;59683;51.428;-1.994;2023-08-30T16:30:07;5.97;;;0.90;;
66663;SDS011;59683;51.428;-1.994;2023-08-30T16:32:33;2.97;;;1.00;;
66663;SDS011;59683;51.428;-1.994;2023-08-30T16:34:59;3.63;;;0.70;;
66663;SDS011;59683;51.428;-1.994;2023-08-30T16:37:25;2.53;;;0.50;;
66663;SDS011;59683;51.428;-1.994;2023-08-30T16:39:50;4.07;;;0.73;;
66663;SDS011;59683;51.428;-1.994;2023-08-30T16:42:16;4.10;;;0.80;;
66663;SDS011;59683;51.428;-1.994;2023-08-30T16:44:43;4.87;;;0.70;;
66663;SDS011;59683;51.428;-1.994;2023-08-30T16:47:09;3.60;;;0.80;;
66663;SDS011;59683;51.428;-1.994;2023-08-30T16:49:34;3.43;;;0.90;;
66663;SDS011;59683;51.428;-1.994;2023-08-30T16:52:00;6.57;;;1.13;;
66663;SDS011;59683;51.428;-1.994;2023-08-30T16:54:25;4.80;;;1.13;;
66663;SDS011;59683;51.428;-1.994;2023-08-30T16:56:51;3.03;;;1.33;;
66663;SDS011;59683;51.428;-1.994;2023-08-30T16:59:17;5.50;;;1.53;;
66663;SDS011;59683;51.428;-1.994;2023-08-30T17:01:44;3.73;;;1.50;;
66663;SDS011;59683;51.428;-1.994;2023-08-30T17:04:10;7.83;;;0.90;;
66663;SDS011;59683;51.428;-1.994;2023-08-30T17:06:37;4.10;;;1.00;;
66663;SDS011;59683;51.428;-1.994;2023-08-30T17:09:03;4.93;;;1.20;;
66663;SDS011;59683;51.428;-1.994;2023-08-30T17:11:32;7.57;;;1.00;;
66663;SDS011;59683;51.428;-1.994;2023-08-30T17:14:10;3.80;;;1.20;;
66663;SDS011;59683;51.428;-1.994;2023-08-30T17:16:36;6.27;;;1.13;;
66663;SDS011;59683;51.428;-1.994;2023-08-30T17:19:02;3.37;;;1.03;;
66663;SDS011;59683;51.428;-1.994;2023-08-30T17:21:27;5.63;;;1.00;;
66663;SDS011;59683;51.428;-1.994;2023-08-30T17:23:53;7.33;;;1.47;;
66663;SDS011;59683;51.428;-1.994;2023-08-30T17:26:19;7.03;;;1.80;;
66663;SDS011;59683;51.428;-1.994;2023-08-30T17:28:53;3.77;;;1.33;;
66663;SDS011;59683;51.428;-1.994;2023-08-30T17:31:22;3.93;;;0.83;;
66663;SDS011;59683;51.428;-1.994;2023-08-30T17:33:49;3.70;;;0.80;;
66663;SDS011;59683;51.428;-1.994;2023-08-30T17:36:15;3.77;;;0.80;;
66663;SDS011;59683;51.428;-1.994;2023-08-30T17:38:40;5.20;;;0.73;;
66663;SDS011;59683;51.428;-1.994;2023-08-30T17:41:07;6.07;;;1.40;;
66663;SDS011;59683;51.428;-1.994;2023-08-30T17:43:34;4.83;;;1.10;;
66663;SDS011;59683;51.428;-1.994;2023-08-30T17:46:00;6.10;;;1.00;;
66663;SDS011;59683;51.428;-1.994;2023-08-30T17:48:26;4.03;;;1.10;;
66663;SDS011;59683;51.428;-1.994;2023-08-30T17:50:51;7.27;;;1.43;;
66663;SDS011;59683;51.428;-1.994;2023-08-30T17:53:18;3.63;;;1.20;;
66663;SDS011;59683;51.428;-1.994;2023-08-30T17:55:43;5.70;;;1.40;;
66663;SDS011;59683;51.428;-1.994;2023-08-30T17:58:09;8.90;;;1.40;;
66663;SDS011;59683;51.428;-1.994;2023-08-30T18:00:34;5.77;;;1.70;;
66663;SDS011;59683;51.428;-1.994;2023-08-30T18:03:00;7.50;;;1.80;;
66663;SDS011;59683;51.428;-1.994;2023-08-30T18:05:25;5.00;;;1.40;;
66663;SDS011;59683;51.428;-1.994;2023-08-30T18:07:57;3.40;;;1.27;;
66663;SDS011;59683;51.428;-1.994;2023-08-30T18:10:23;2.30;;;0.83;;
66663;SDS011;59683;51.428;-1.994;2023-08-30T18:12:51;5.23;;;1.47;;
66663;SDS011;59683;51.428;-1.994;2023-08-30T18:15:17;4.27;;;1.10;;
66663;SDS011;59683;51.428;-1.994;2023-08-30T18:17:42;5.63;;;1.00;;
66663;SDS011;59683;51.428;-1.994;2023-08-30T18:20:08;6.50;;;1.37;;
66663;SDS011;59683;51.428;-1.994;2023-08-30T18:22:38;5.40;;;1.40;;
66663;SDS011;59683;51.428;-1.994;2023-08-30T18:25:03;5.10;;;1.30;;
66663;SDS011;59683;51.428;-1.994;2023-08-30T18:27:29;4.97;;;1.07;;
66663;SDS011;59683;51.428;-1.994;2023-08-30T18:29:56;9.53;;;1.37;;
66663;SDS011;59683;51.428;-1.994;2023-08-30T18:32:21;5.63;;;1.27;;
66663;SDS011;59683;51.428;-1.994;2023-08-30T18:34:47;4.77;;;1.20;;
66663;SDS011;59683;51.428;-1.994;2023-08-30T18:37:12;6.83;;;1.10;;
66663;SDS011;59683;51.428;-1.994;2023-08-30T18:39:38;5.20;;;1.10;;
66663;SDS011;59683;51.428;-1.994;2023-08-30T18:42:04;4.53;;;1.17;;
66663;SDS011;59683;51.428;-1.994;2023-08-30T18:44:30;8.23;;;1.50;;
66663;SDS011;59683;51.428;-1.994;2023-08-30T18:46:57;4.63;;;1.20;;
66663;SDS011;59683;51.428;-1.994;2023-08-30T18:49:29;5.40;;;1.50;;
66663;SDS011;59683;51.428;-1.994;2023-08-30T18:52:04;7.40;;;1.63;;
66663;SDS011;59683;51.428;-1.994;2023-08-30T18:54:33;6.27;;;1.80;;
66663;SDS011;59683;51.428;-1.994;2023-08-30T18:56:58;8.87;;;1.73;;
66663;SDS011;59683;51.428;-1.994;2023-08-30T18:59:24;7.87;;;2.73;;
66663;SDS011;59683;51.428;-1.994;2023-08-30T19:01:50;5.63;;;1.97;;
66663;SDS011;59683;51.428;-1.994;2023-08-30T19:04:18;9.97;;;2.70;;
66663;SDS011;59683;51.428;-1.994;2023-08-30T19:06:44;7.60;;;2.87;;
66663;SDS011;59683;51.428;-1.994;2023-08-30T19:09:10;6.17;;;2.50;;
66663;SDS011;59683;51.428;-1.994;2023-08-30T19:11:36;14.63;;;3.17;;
66663;SDS011;59683;51.428;-1.994;2023-08-30T19:14:01;8.27;;;2.33;;
66663;SDS011;59683;51.428;-1.994;2023-08-30T19:16:28;7.93;;;2.80;;
66663;SDS011;59683;51.428;-1.994;2023-08-30T19:18:55;6.50;;;2.03;;
66663;SDS011;59683;51.428;-1.994;2023-08-30T19:21:21;17.03;;;2.80;;
66663;SDS011;59683;51.428;-1.994;2023-08-30T19:23:47;11.80;;;4.60;;
66663;SDS011;59683;51.428;-1.994;2023-08-30T19:26:14;13.07;;;5.00;;
66663;SDS011;59683;51.428;-1.994;2023-08-30T19:28:43;17.77;;;6.30;;
66663;SDS011;59683;51.428;-1.994;2023-08-30T19:31:12;15.87;;;7.40;;
66663;SDS011;59683;51.428;-1.994;2023-08-30T19:33:38;18.10;;;4.97;;
66663;SDS011;59683;51.428;-1.994;2023-08-30T19:36:04;9.23;;;3.90;;
66663;SDS011;59683;51.428;-1.994;2023-08-30T19:38:30;8.63;;;3.10;;
66663;SDS011;59683;51.428;-1.994;2023-08-30T19:40:56;10.50;;;3.47;;
66663;SDS011;59683;51.428;-1.994;2023-08-30T19:43:23;11.13;;;3.23;;
66663;SDS011;59683;51.428;-1.994;2023-08-30T19:45:58;7.60;;;2.83;;
66663;SDS011;59683;51.428;-1.994;2023-08-30T19:48:26;10.05;;;2.63;;
66663;SDS011;59683;51.428;-1.994;2023-08-30T19:50:52;10.17;;;3.10;;
66663;SDS011;59683;51.428;-1.994;2023-08-30T19:53:19;7.93;;;2.40;;
66663;SDS011;59683;51.428;-1.994;2023-08-30T19:55:44;9.30;;;2.43;;
66663;SDS011;59683;51.428;-1.994;2023-08-30T19:58:13;8.17;;;3.50;;
66663;SDS011;59683;51.428;-1.994;2023-08-30T20:00:39;10.20;;;3.20;;
66663;SDS011;59683;51.428;-1.994;2023-08-30T20:03:06;8.73;;;2.85;;
66663;SDS011;59683;51.428;-1.994;2023-08-30T20:05:33;10.63;;;2.65;;
66663;SDS011;59683;51.428;-1.994;2023-08-30T20:08:00;9.98;;;4.20;;
66663;SDS011;59683;51.428;-1.994;2023-08-30T20:10:26;6.57;;;3.37;;
66663;SDS011;59683;51.428;-1.994;2023-08-30T20:12:52;10.52;;;3.03;;
66663;SDS011;59683;51.428;-1.994;2023-08-30T20:15:17;9.10;;;3.20;;
66663;SDS011;59683;51.428;-1.994;2023-08-30T20:17:44;9.50;;;3.03;;
66663;SDS011;59683;51.428;-1.994;2023-08-30T20:20:12;8.95;;;3.22;;
66663;SDS011;59683;51.428;-1.994;2023-08-30T20:22:37;11.77;;;3.42;;
66663;SDS011;59683;51.428;-1.994;2023-08-30T20:25:06;8.60;;;3.53;;
66663;SDS011;59683;51.428;-1.994;2023-08-30T20:27:33;8.93;;;3.30;;
66663;SDS011;59683;51.428;-1.994;2023-08-30T20:30:00;13.60;;;3.97;;
66663;SDS011;59683;51.428;-1.994;2023-08-30T20:32:25;7.60;;;4.53;;
66663;SDS011;59683;51.428;-1.994;2023-08-30T20:34:51;11.23;;;4.10;;
66663;SDS011;59683;51.428;-1.994;2023-08-30T20:37:17;10.97;;;4.63;;
66663;SDS011;59683;51.428;-1.994;2023-08-30T20:39:44;12.45;;;4.32;;
66663;SDS011;59683;51.428;-1.994;2023-08-30T20:42:09;8.35;;;3.90;;
66663;SDS011;59683;51.428;-1.994;2023-08-30T20:44:35;13.53;;;3.87;;
66663;SDS011;59683;51.428;-1.994;2023-08-30T20:47:03;9.32;;;2.90;;
66663;SDS011;59683;51.428;-1.994;2023-08-30T20:49:30;10.93;;;3.55;;
66663;SDS011;59683;51.428;-1.994;2023-08-30T20:51:55;9.17;;;3.60;;
66663;SDS011;59683;51.428;-1.994;2023-08-30T20:54:21;9.27;;;4.17;;
66663;SDS011;59683;51.428;-1.994;2023-08-30T20:56:46;7.13;;;3.37;;
66663;SDS011;59683;51.428;-1.994;2023-08-30T20:59:13;11.32;;;3.60;;
66663;SDS011;59683;51.428;-1.994;2023-08-30T21:01:41;10.48;;;3.30;;
66663;SDS011;59683;51.428;-1.994;2023-08-30T21:04:06;6.85;;;3.10;;
66663;SDS011;59683;51.428;-1.994;2023-08-30T21:06:32;10.40;;;4.00;;